Time;durP1;ratioP1;P1;durP2;ratioP2;P2;SDS_P1;SDS_P2;PMS_P1;PMS_P2;Temp;Humidity;BMP_temperature;BMP_pressure;BME280_temperature;BME280_humidity;BME280_pressure;Samples;Min_cycle;Max_cycle;Signal;HPM_P1;HPM_P2
2021/09/26 00:01:31;;;;;;;13.10;10.15;;;;;;;17.87;91.43;98690.34;4927455;28;103269;-68
2021/09/26 00:03:59;;;;;;;9.38;8.40;;;;;;;18.20;89.60;98695.88;4929989;28;102994;-68
2021/09/26 00:06:27;;;;;;;7.50;6.80;;;;;;;18.37;88.55;98689.59;4930132;28;102841;-68
2021/09/26 00:08:55;;;;;;;7.63;6.93;;;;;;;18.44;88.21;98688.81;4929267;28;104012;-68
2021/09/26 00:11:23;;;;;;;7.57;6.45;;;;;;;18.46;88.75;98685.97;4930234;28;103282;-68
2021/09/26 00:13:51;;;;;;;10.27;7.82;;;;;;;18.52;87.84;98690.72;4927370;28;103261;-68
2021/09/26 00:16:21;;;;;;;9.20;7.88;;;;;;;18.42;89.14;98684.63;4927229;28;102712;-68
2021/09/26 00:18:50;;;;;;;6.90;6.30;;;;;;;18.42;88.85;98687.28;4928467;28;103158;-68
2021/09/26 00:21:18;;;;;;;8.75;7.85;;;;;;;18.49;88.08;98675.00;4928076;28;103277;-68
2021/09/26 00:23:47;;;;;;;7.68;6.97;;;;;;;18.39;89.28;98680.44;4930333;28;104395;-68
2021/09/26 00:26:15;;;;;;;7.80;6.80;;;;;;;18.53;88.34;98684.34;4929005;28;102845;-67
2021/09/26 00:28:44;;;;;;;8.60;7.72;;;;;;;18.52;88.24;98680.03;4928072;28;102779;-67
2021/09/26 00:31:12;;;;;;;7.45;6.75;;;;;;;18.50;88.82;98682.84;4930408;28;103308;-67
2021/09/26 00:33:42;;;;;;;8.32;7.53;;;;;;;18.45;88.78;98671.75;4912330;28;104369;-67
2021/09/26 00:36:10;;;;;;;9.77;8.77;;;;;;;18.28;89.36;98669.16;4929912;28;102726;-68
2021/09/26 00:38:38;;;;;;;8.98;8.07;;;;;;;18.08;90.82;98676.59;4931362;28;102711;-76
2021/09/26 00:41:06;;;;;;;9.30;8.40;;;;;;;18.08;90.27;98683.78;4928312;28;102989;-76
2021/09/26 00:43:36;;;;;;;9.38;8.40;;;;;;;17.90;91.28;98668.66;4928714;28;103227;-76
2021/09/26 00:46:05;;;;;;;7.07;6.47;;;;;;;18.07;90.86;98674.09;4931662;28;103043;-76
2021/09/26 00:48:33;;;;;;;9.70;8.70;;;;;;;18.11;89.94;98659.38;4932093;28;102799;-75
2021/09/26 00:51:10;;;;;;;10.63;9.48;;;;;;;17.85;91.29;98676.28;4936437;28;104147;-77
2021/09/26 00:53:38;;;;;;;9.45;8.32;;;;;;;17.79;91.83;98665.41;4933352;28;103333;-74
2021/09/26 00:56:07;;;;;;;10.45;9.55;;;;;;;17.62;92.61;98664.44;4935047;28;104332;-77
2021/09/26 00:58:36;;;;;;;8.38;7.57;;;;;;;17.86;90.31;98664.59;4934226;28;103052;-76
2021/09/26 01:01:04;;;;;;;7.82;7.13;;;;;;;17.94;90.02;98670.00;4930953;28;103239;-75
2021/09/26 01:03:33;;;;;;;7.53;6.82;;;;;;;17.98;89.88;98673.19;4933151;28;103368;-75
2021/09/26 01:06:15;;;;;;;7.03;6.32;;;;;;;17.94;89.82;98678.00;4931309;28;102719;-76
2021/09/26 01:08:54;;;;;;;8.20;7.50;;;;;;;17.90;89.57;98679.34;4933786;28;103852;-76
2021/09/26 01:11:31;;;;;;;9.80;8.98;;;;;;;17.57;91.77;98677.41;4916837;28;102988;-68
2021/09/26 01:14:07;;;;;;;9.80;8.90;;;;;;;17.47;93.56;98676.63;4930147;28;103150;-75
2021/09/26 01:16:41;;;;;;;8.50;7.68;;;;;;;17.65;92.33;98682.84;4918571;28;103808;-75
2021/09/26 01:19:29;;;;;;;8.05;7.25;;;;;;;17.60;92.71;98686.97;4933717;28;103041;-68
2021/09/26 01:22:03;;;;;;;10.82;9.27;;;;;;;17.25;94.34;98677.97;4934890;28;103305;-68
2021/09/26 01:25:08;;;;;;;15.10;9.77;;;;;;;16.98;96.60;98682.53;4936201;28;103280;-68
2021/09/26 01:27:50;;;;;;;13.10;10.85;;;;;;;16.97;96.97;98678.16;4916186;28;103073;-68
2021/09/26 01:30:23;;;;;;;8.75;8.05;;;;;;;17.35;94.40;98685.88;4912475;28;103565;-75
2021/09/26 01:32:58;;;;;;;9.65;7.80;;;;;;;17.53;92.70;98688.53;4930756;28;103309;-76
2021/09/26 01:35:28;;;;;;;10.75;9.27;;;;;;;17.44;93.70;98692.97;4931754;28;103291;-75
2021/09/26 01:38:06;;;;;;;11.07;9.93;;;;;;;17.27;94.52;98691.97;4933206;28;102714;-76
2021/09/26 01:40:42;;;;;;;12.00;10.68;;;;;;;16.97;97.15;98696.84;4914854;28;103059;-76
2021/09/26 01:43:15;;;;;;;10.48;9.57;;;;;;;17.11;96.38;98696.34;4932459;28;104594;-69
2021/09/26 01:45:49;;;;;;;8.90;8.10;;;;;;;17.28;95.10;98692.84;4914671;28;103201;-76
2021/09/26 01:48:20;;;;;;;11.93;10.82;;;;;;;17.15;95.62;98695.06;4916315;28;103917;-76
2021/09/26 01:50:52;;;;;;;9.75;8.75;;;;;;;17.01;97.38;98700.91;4931224;28;103028;-75
2021/09/26 01:53:23;;;;;;;10.05;9.05;;;;;;;17.19;95.09;98699.91;4932673;28;104080;-76
2021/09/26 01:55:53;;;;;;;12.13;10.95;;;;;;;16.95;96.73;98705.03;4932303;28;103754;-76
2021/09/26 01:58:23;;;;;;;9.65;8.80;;;;;;;17.13;95.59;98700.53;4911587;28;102887;-77
2021/09/26 02:00:53;;;;;;;12.77;11.52;;;;;;;16.79;97.80;98703.00;4911987;28;102866;-69
2021/09/26 02:03:24;;;;;;;10.23;9.32;;;;;;;17.00;96.82;98689.41;4929218;28;103158;-69
2021/09/26 02:05:54;;;;;;;11.90;10.73;;;;;;;16.87;97.48;98701.44;4930595;28;103254;-68
2021/09/26 02:08:22;;;;;;;8.38;7.68;;;;;;;17.13;95.38;98702.34;4931643;28;102736;-69
2021/09/26 02:10:51;;;;;;;11.25;10.02;;;;;;;17.10;95.35;98697.31;4940763;28;102698;-77
2021/09/26 02:13:21;;;;;;;8.10;7.30;;;;;;;17.02;96.35;98692.75;4930703;28;102711;-69
2021/09/26 02:15:51;;;;;;;12.23;11.07;;;;;;;16.71;97.88;98694.06;4914274;28;103219;-69
2021/09/26 02:18:21;;;;;;;10.45;9.45;;;;;;;16.66;99.68;98691.84;4913948;28;103174;-68
2021/09/26 02:20:50;;;;;;;9.45;8.25;;;;;;;16.83;98.13;98684.03;4915417;28;102687;-69
2021/09/26 02:23:20;;;;;;;8.23;7.47;;;;;;;16.96;96.65;98688.00;4932927;28;103869;-69
2021/09/26 02:25:48;;;;;;;7.88;7.03;;;;;;;17.13;94.51;98699.69;4924780;28;103247;-78
2021/09/26 02:28:17;;;;;;;10.40;9.23;;;;;;;17.09;94.84;98687.66;4940533;28;102611;-78
2021/09/26 02:30:46;;;;;;;7.97;7.25;;;;;;;17.06;95.21;98687.94;4922456;28;102723;-76
2021/09/26 02:33:14;;;;;;;9.73;8.80;;;;;;;17.06;95.05;98682.63;4921404;28;104096;-69
2021/09/26 02:35:44;;;;;;;9.00;8.20;;;;;;;17.00;96.14;98681.38;4939945;28;103022;-77
2021/09/26 02:38:12;;;;;;;7.97;7.20;;;;;;;17.01;96.12;98679.56;4922559;28;102746;-80
2021/09/26 02:40:46;;;;;;;9.60;8.70;;;;;;;17.01;96.49;98690.25;4939677;28;102745;-76
2021/09/26 02:43:22;;;;;;;8.82;8.02;;;;;;;16.96;97.22;98687.16;4921515;28;103396;-76
2021/09/26 02:45:57;;;;;;;8.07;7.38;;;;;;;17.02;97.13;98691.91;4922533;28;103125;-76
2021/09/26 02:48:28;;;;;;;8.52;7.72;;;;;;;17.02;97.25;98691.91;4938583;28;102704;-77
2021/09/26 02:50:58;;;;;;;7.80;7.10;;;;;;;16.98;97.39;98695.88;4921295;28;102689;-78
2021/09/26 02:53:27;;;;;;;10.75;8.68;;;;;;;16.77;98.10;98688.97;4919842;28;103290;-77
2021/09/26 02:55:59;;;;;;;9.20;8.30;;;;;;;16.54;100.00;98682.38;4940094;28;103291;-77
2021/09/26 02:58:28;;;;;;;9.55;8.63;;;;;;;16.62;100.00;98684.28;4939870;28;102619;-78
2021/09/26 03:00:56;;;;;;;7.95;7.25;;;;;;;16.74;98.93;98689.28;4939349;28;102762;-77
2021/09/26 03:03:27;;;;;;;9.85;8.43;;;;;;;16.81;98.26;98685.00;4939793;28;103292;-79
2021/09/26 03:05:57;;;;;;;6.28;5.68;;;;;;;16.90;97.17;98682.44;4941425;28;103194;-78
2021/09/26 03:08:26;;;;;;;6.72;6.13;;;;;;;16.96;96.13;98684.50;4938133;28;102661;-77
2021/09/26 03:10:57;;;;;;;7.80;7.10;;;;;;;16.87;96.72;98682.75;4941006;28;102689;-77
2021/09/26 03:13:26;;;;;;;9.30;8.45;;;;;;;16.66;98.79;98678.53;4939279;28;104049;-77
2021/09/26 03:15:54;;;;;;;10.10;9.10;;;;;;;16.41;100.00;98671.19;4939336;28;103222;-77
2021/09/26 03:18:23;;;;;;;9.73;8.73;;;;;;;16.47;100.00;98667.94;4940031;28;102651;-79
2021/09/26 03:20:51;;;;;;;9.95;9.05;;;;;;;16.16;100.00;98672.72;4939967;28;102761;-77
2021/09/26 03:23:20;;;;;;;12.70;8.82;;;;;;;16.40;100.00;98673.97;4920611;28;104222;-68
2021/09/26 03:25:49;;;;;;;10.25;9.30;;;;;;;16.41;100.00;98665.00;4939350;28;103051;-68
2021/09/26 03:28:17;;;;;;;9.57;8.68;;;;;;;16.46;100.00;98663.56;4921847;28;103082;-68
2021/09/26 03:30:45;;;;;;;11.20;9.32;;;;;;;16.43;100.00;98661.19;4939575;28;104093;-68
2021/09/26 03:33:13;;;;;;;7.95;7.15;;;;;;;16.63;100.00;98665.47;4938553;28;103336;-68
2021/09/26 03:35:41;;;;;;;5.97;5.45;;;;;;;16.67;98.53;98660.69;4938618;28;103245;-68
2021/09/26 03:38:09;;;;;;;6.07;5.53;;;;;;;16.74;96.74;98659.09;4919294;28;102687;-76
2021/09/26 03:40:39;;;;;;;6.30;5.80;;;;;;;16.71;96.26;98662.91;4939176;28;102740;-67
2021/09/26 03:43:07;;;;;;;8.50;7.57;;;;;;;16.62;97.75;98657.63;4937709;28;103446;-68
2021/09/26 03:45:35;;;;;;;8.60;7.85;;;;;;;16.53;100.00;98658.50;4938274;28;103293;-69
2021/09/26 03:48:06;;;;;;;10.40;8.75;;;;;;;16.55;100.00;98662.72;4937188;28;102629;-76
2021/09/26 03:50:34;;;;;;;8.27;7.57;;;;;;;16.53;100.00;98655.84;4920801;28;102870;-75
2021/09/26 03:53:02;;;;;;;8.32;7.53;;;;;;;16.54;98.46;98649.53;4937189;28;103790;-68
2021/09/26 03:55:30;;;;;;;8.52;7.82;;;;;;;16.60;95.91;98657.78;4937757;28;103204;-68
2021/09/26 03:58:00;;;;;;;11.23;10.13;;;;;;;16.19;97.67;98661.75;4939505;28;102714;-68
2021/09/26 04:00:28;;;;;;;10.15;9.15;;;;;;;16.01;100.00;98665.31;4936604;28;103832;-68
2021/09/26 04:02:56;;;;;;;11.18;10.05;;;;;;;15.87;100.00;98663.97;4936640;28;104163;-68
2021/09/26 04:05:24;;;;;;;12.75;11.50;;;;;;;15.77;100.00;98655.16;4940073;28;102978;-68
2021/09/26 04:07:52;;;;;;;14.30;10.07;;;;;;;15.77;100.00;98664.97;4938076;28;102654;-68
2021/09/26 04:10:21;;;;;;;12.60;10.65;;;;;;;15.87;100.00;98665.78;4921039;28;104034;-68
2021/09/26 04:12:49;;;;;;;7.53;6.72;;;;;;;16.15;100.00;98659.50;4935556;28;104233;-68
2021/09/26 04:15:19;;;;;;;7.55;6.80;;;;;;;16.29;100.00;98664.34;4937597;28;103201;-69
2021/09/26 04:17:47;;;;;;;7.63;6.93;;;;;;;16.32;99.32;98661.41;4938458;28;102569;-76
2021/09/26 04:20:15;;;;;;;8.32;7.60;;;;;;;16.25;99.55;98665.66;4938088;28;102724;-76
2021/09/26 04:22:43;;;;;;;7.07;6.00;;;;;;;16.29;99.04;98661.69;4938458;28;103281;-76
2021/09/26 04:25:12;;;;;;;5.90;5.30;;;;;;;16.35;97.53;98660.25;4938782;28;103231;-76
2021/09/26 04:27:40;;;;;;;7.68;6.88;;;;;;;16.31;96.82;98662.38;4936982;28;102652;-77
2021/09/26 04:30:09;;;;;;;9.75;8.85;;;;;;;16.23;97.08;98657.78;4938343;28;104066;-68
2021/09/26 04:32:38;;;;;;;7.85;7.15;;;;;;;16.20;97.36;98662.56;4938175;28;103287;-69
2021/09/26 04:35:07;;;;;;;6.68;6.15;;;;;;;16.21;97.03;98658.94;4937067;28;103247;-77
2021/09/26 04:37:36;;;;;;;6.05;5.47;;;;;;;16.22;96.43;98657.97;4919796;28;103206;-68
2021/09/26 04:40:04;;;;;;;7.63;6.70;;;;;;;16.22;95.53;98655.28;4938756;28;103715;-68
2021/09/26 04:42:32;;;;;;;6.28;5.72;;;;;;;16.24;95.12;98653.31;4937797;28;103865;-76
2021/09/26 04:45:02;;;;;;;6.07;5.57;;;;;;;16.24;94.82;98661.31;4938798;28;103253;-76
2021/09/26 04:47:30;;;;;;;6.47;5.90;;;;;;;16.20;94.53;98651.91;4937333;28;102731;-76
2021/09/26 04:50:00;;;;;;;7.63;6.93;;;;;;;16.11;94.47;98658.16;4938776;28;102804;-76
2021/09/26 04:52:28;;;;;;;6.85;6.07;;;;;;;16.07;95.58;98662.91;4917863;28;103201;-68
2021/09/26 04:54:56;;;;;;;7.68;7.07;;;;;;;16.02;95.93;98656.34;4937703;28;103227;-68
2021/09/26 04:57:24;;;;;;;6.57;6.07;;;;;;;16.05;95.20;98648.06;4938685;28;102673;-67
2021/09/26 04:59:52;;;;;;;6.00;5.50;;;;;;;16.07;94.48;98662.06;4937496;28;103319;-67
2021/09/26 05:02:20;;;;;;;6.28;5.68;;;;;;;16.09;94.29;98665.41;4936770;28;103266;-67
2021/09/26 05:04:49;;;;;;;6.00;5.50;;;;;;;16.03;94.54;98671.31;4938397;28;103239;-67
2021/09/26 05:07:20;;;;;;;6.45;5.85;;;;;;;16.02;94.24;98669.66;4939417;28;102799;-75
2021/09/26 05:09:48;;;;;;;8.68;7.20;;;;;;;16.03;94.07;98674.00;4921359;28;102781;-67
2021/09/26 05:12:16;;;;;;;7.05;6.45;;;;;;;16.00;95.23;98666.31;4935779;28;103312;-68
2021/09/26 05:14:44;;;;;;;6.63;6.05;;;;;;;15.98;95.81;98669.13;4939044;28;103284;-67
2021/09/26 05:17:12;;;;;;;7.45;6.75;;;;;;;16.00;95.05;98666.31;4938655;28;102692;-76
2021/09/26 05:19:41;;;;;;;6.43;5.85;;;;;;;15.96;94.86;98676.41;4940921;28;105228;-76
2021/09/26 05:22:09;;;;;;;6.35;5.75;;;;;;;15.97;94.34;98677.25;4940394;28;104064;-75
2021/09/26 05:24:38;;;;;;;9.38;8.45;;;;;;;15.83;95.08;98685.72;4940062;28;103241;-75
2021/09/26 05:27:07;;;;;;;8.48;7.70;;;;;;;15.71;95.71;98677.03;4940546;28;103980;-75
2021/09/26 05:29:35;;;;;;;9.48;8.57;;;;;;;15.66;97.47;98674.78;4941739;28;102727;-75
2021/09/26 05:32:04;;;;;;;7.55;6.85;;;;;;;15.75;97.94;98673.09;4941250;28;103308;-75
2021/09/26 05:34:32;;;;;;;8.13;7.43;;;;;;;15.84;96.86;98671.41;4943914;28;103258;-75
2021/09/26 05:37:01;;;;;;;7.63;6.97;;;;;;;15.82;96.13;98679.53;4923437;28;102697;-68
2021/09/26 05:39:31;;;;;;;11.43;8.90;;;;;;;15.65;98.22;98667.81;4935508;28;104046;-74
2021/09/26 05:42:03;;;;;;;11.38;10.20;;;;;;;15.28;100.00;98658.00;4939165;28;102658;-74
2021/09/26 05:44:31;;;;;;;12.63;9.45;;;;;;;15.60;100.00;98659.41;4940050;28;103310;-74
2021/09/26 05:47:00;;;;;;;8.45;7.65;;;;;;;15.77;99.75;98659.66;4939247;28;102764;-74
2021/09/26 05:49:28;;;;;;;7.38;6.68;;;;;;;15.87;97.91;98671.09;4940915;28;102701;-74
2021/09/26 05:51:57;;;;;;;10.40;9.25;;;;;;;15.79;96.67;98668.31;4933537;28;103235;-74
2021/09/26 05:54:25;;;;;;;8.25;7.45;;;;;;;15.77;98.28;98664.97;4939460;28;103202;-74
2021/09/26 05:56:53;;;;;;;10.90;9.82;;;;;;;15.47;100.00;98677.50;4940661;28;102686;-74
2021/09/26 05:59:23;;;;;;;12.80;11.30;;;;;;;15.26;100.00;98676.78;4941053;28;104046;-74
2021/09/26 06:01:51;;;;;;;10.73;9.68;;;;;;;15.37;100.00;98676.66;4921394;28;103252;-74
2021/09/26 06:04:19;;;;;;;8.60;7.47;;;;;;;15.72;100.00;98677.91;4922505;28;103297;-74
2021/09/26 06:06:47;;;;;;;6.60;6.00;;;;;;;15.95;100.00;98679.22;4939165;28;102615;-74
2021/09/26 06:09:15;;;;;;;9.55;8.63;;;;;;;15.99;100.00;98669.97;4940240;28;102784;-74
2021/09/26 06:11:43;;;;;;;7.70;7.00;;;;;;;16.11;100.00;98660.81;4939561;28;103099;-74
2021/09/26 06:14:11;;;;;;;7.43;6.72;;;;;;;16.21;100.00;98661.59;4921991;28;103246;-74
2021/09/26 06:16:41;;;;;;;6.70;6.15;;;;;;;16.40;99.51;98663.31;4941014;28;102708;-73
2021/09/26 06:19:09;;;;;;;8.82;7.05;;;;;;;16.54;97.00;98669.03;4940370;28;102722;-73
2021/09/26 06:21:38;;;;;;;8.95;8.10;;;;;;;16.62;95.15;98679.78;4940103;28;103260;-73
2021/09/26 06:24:06;;;;;;;9.52;8.73;;;;;;;16.67;94.92;98680.19;4940202;28;103278;-67
2021/09/26 06:26:34;;;;;;;8.85;7.95;;;;;;;16.78;94.35;98685.34;4940169;28;102580;-74
2021/09/26 06:29:02;;;;;;;9.68;8.85;;;;;;;16.84;94.75;98688.38;4940488;28;102682;-73
2021/09/26 06:31:31;;;;;;;9.50;8.45;;;;;;;16.96;94.08;98688.00;4938120;28;103412;-67
2021/09/26 06:34:00;;;;;;;7.68;6.97;;;;;;;17.09;93.26;98692.97;4941651;28;103208;-67
2021/09/26 06:36:29;;;;;;;9.55;8.65;;;;;;;17.20;93.18;98690.09;4922631;28;102667;-74
2021/09/26 06:38:57;;;;;;;7.38;6.68;;;;;;;17.34;93.24;98686.88;4938988;28;104025;-67
2021/09/26 06:41:25;;;;;;;6.95;6.20;;;;;;;17.48;92.55;98685.50;4938871;28;103285;-69
2021/09/26 06:43:55;;;;;;;6.47;5.68;;;;;;;17.59;92.01;98680.78;4936862;28;103160;-68
2021/09/26 06:46:23;;;;;;;6.60;6.00;;;;;;;17.74;91.37;98678.41;4919184;28;103243;-75
2021/09/26 06:48:51;;;;;;;6.72;6.13;;;;;;;17.80;92.02;98683.94;4915973;28;102713;-76
2021/09/26 06:51:21;;;;;;;9.73;8.45;;;;;;;17.83;92.98;98688.13;4918866;28;103961;-76
2021/09/26 06:53:49;;;;;;;11.60;10.27;;;;;;;17.54;96.20;98700.94;4937835;28;103730;-74
2021/09/26 06:56:17;;;;;;;10.15;9.13;;;;;;;17.47;98.25;98703.34;4935602;28;102670;-76
2021/09/26 06:58:46;;;;;;;11.68;10.48;;;;;;;17.46;99.69;98704.31;4937380;28;103969;-73
2021/09/26 07:01:14;;;;;;;11.15;10.13;;;;;;;17.50;100.00;98703.03;4937014;28;103373;-74
2021/09/26 07:03:43;;;;;;;11.70;10.00;;;;;;;17.63;99.56;98708.84;4936628;28;104516;-73
2021/09/26 07:06:11;;;;;;;8.23;7.53;;;;;;;18.19;97.08;98713.75;4938013;28;104770;-65
2021/09/26 07:08:41;;;;;;;12.45;9.38;;;;;;;18.40;94.59;98718.72;4936377;28;102792;-73
2021/09/26 07:11:09;;;;;;;7.20;6.50;;;;;;;18.81;93.32;98717.91;4933244;28;104111;-73
2021/09/26 07:13:37;;;;;;;6.53;5.95;;;;;;;19.10;90.89;98720.19;4932943;28;103889;-66
2021/09/26 07:16:06;;;;;;;10.55;8.57;;;;;;;19.05;89.94;98720.69;4918137;28;102875;-73
2021/09/26 07:18:34;;;;;;;7.18;6.57;;;;;;;19.37;90.17;98729.78;4933134;28;102726;-73
2021/09/26 07:21:02;;;;;;;7.63;6.93;;;;;;;19.75;87.95;98731.84;4937453;28;104013;-73
2021/09/26 07:23:32;;;;;;;9.52;8.63;;;;;;;20.03;85.23;98730.47;4936279;28;103246;-73
2021/09/26 07:26:02;;;;;;;7.30;6.60;;;;;;;20.31;84.44;98725.59;4933667;28;102736;-67
2021/09/26 07:28:31;;;;;;;8.10;7.32;;;;;;;20.12;87.00;98718.75;4931422;28;103423;-74
2021/09/26 07:30:59;;;;;;;8.80;7.90;;;;;;;20.29;86.08;98716.06;4928428;28;103952;-75
2021/09/26 07:33:27;;;;;;;10.18;8.50;;;;;;;20.20;86.63;98716.03;4930063;28;103152;-68
2021/09/26 07:35:55;;;;;;;8.07;7.28;;;;;;;20.57;84.38;98718.16;4931539;28;103072;-68
2021/09/26 07:38:24;;;;;;;9.10;6.82;;;;;;;20.66;84.33;98725.13;4929922;28;103748;-75
2021/09/26 07:40:52;;;;;;;6.80;6.20;;;;;;;20.73;84.96;98736.03;4923572;28;104178;-75
2021/09/26 07:43:22;;;;;;;9.85;8.18;;;;;;;20.71;83.33;98743.41;4928992;28;103331;-74
2021/09/26 07:45:55;;;;;;;8.45;7.65;;;;;;;20.55;83.43;98744.28;4930154;28;102933;-74
2021/09/26 07:48:24;;;;;;;7.03;5.75;;;;;;;20.68;84.05;98741.91;4914813;28;103960;-69
2021/09/26 07:50:52;;;;;;;8.80;7.82;;;;;;;19.88;87.97;98740.19;4911645;28;103575;-69
2021/09/26 07:53:21;;;;;;;8.55;7.75;;;;;;;20.05;86.78;98744.53;4908247;28;103544;-68
2021/09/26 07:55:51;;;;;;;7.75;6.00;;;;;;;20.54;85.12;98755.22;4892099;28;104002;-69
2021/09/26 07:58:20;;;;;;;7.38;6.68;;;;;;;20.62;83.89;98755.19;4895820;28;103350;-68
2021/09/26 08:00:49;;;;;;;11.30;8.73;;;;;;;19.94;86.95;98766.34;4911432;28;103294;-68
2021/09/26 08:03:17;;;;;;;7.78;6.97;;;;;;;20.24;86.32;98763.00;4909372;28;103302;-68
2021/09/26 08:05:46;;;;;;;6.53;5.93;;;;;;;20.59;84.33;98769.78;4913608;28;102749;-67
2021/09/26 08:08:15;;;;;;;6.53;6.00;;;;;;;20.75;84.27;98787.69;4913492;28;102838;-67
2021/09/26 08:10:43;;;;;;;8.73;7.95;;;;;;;20.61;84.17;98783.03;4915566;28;103899;-68
2021/09/26 08:13:14;;;;;;;8.00;7.28;;;;;;;20.71;84.20;98786.38;4903679;28;103301;-72
2021/09/26 08:15:44;;;;;;;7.75;6.97;;;;;;;20.86;83.65;98795.34;4920546;28;102737;-67
2021/09/26 08:18:12;;;;;;;9.65;6.45;;;;;;;20.76;83.85;98795.56;4912940;28;102798;-73
2021/09/26 08:20:41;;;;;;;10.35;7.57;;;;;;;20.85;83.48;98799.06;4895444;28;104169;-68
2021/09/26 08:23:09;;;;;;;6.75;6.10;;;;;;;20.98;84.53;98793.13;4912506;28;102985;-67
2021/09/26 08:25:37;;;;;;;7.25;6.55;;;;;;;21.51;82.71;98800.44;4910847;28;103926;-72
2021/09/26 08:28:06;;;;;;;6.97;6.28;;;;;;;21.98;80.80;98809.22;4910967;28;102701;-72
2021/09/26 08:30:34;;;;;;;7.85;7.07;;;;;;;22.48;78.78;98806.75;4913697;28;103329;-70
2021/09/26 08:33:05;;;;;;;9.57;7.72;;;;;;;22.54;76.64;98808.69;4910144;28;102988;-68
2021/09/26 08:35:33;;;;;;;7.15;6.45;;;;;;;22.06;78.19;98819.94;4910618;28;102766;-68
2021/09/26 08:38:02;;;;;;;6.35;5.65;;;;;;;22.16;78.98;98820.50;4914369;28;102976;-68
2021/09/26 08:40:30;;;;;;;6.28;5.68;;;;;;;22.20;79.14;98819.16;4917077;28;103697;-68
2021/09/26 08:42:59;;;;;;;8.30;6.00;;;;;;;21.74;79.15;98814.75;4913535;28;103215;-68
2021/09/26 08:45:29;;;;;;;8.38;5.57;;;;;;;21.94;79.07;98813.31;4909586;28;102955;-68
2021/09/26 08:47:58;;;;;;;9.10;5.72;;;;;;;21.97;79.08;98817.47;4922714;28;103866;-68
2021/09/26 08:50:29;;;;;;;8.18;5.95;;;;;;;22.02;78.94;98815.91;4914026;28;103315;-67
2021/09/26 08:52:58;;;;;;;5.70;4.82;;;;;;;22.06;78.90;98814.56;4911693;28;103082;-68
2021/09/26 08:55:26;;;;;;;7.03;5.22;;;;;;;22.13;78.17;98809.28;4922786;28;102860;-69
2021/09/26 08:57:56;;;;;;;6.20;5.65;;;;;;;22.26;78.63;98813.00;4922540;28;102744;-67
2021/09/26 09:00:26;;;;;;;5.75;5.20;;;;;;;22.43;77.49;98808.31;4919027;28;103410;-68
2021/09/26 09:02:57;;;;;;;5.85;5.18;;;;;;;22.63;76.65;98806.75;4922741;28;103389;-68
2021/09/26 09:05:33;;;;;;;6.22;5.35;;;;;;;22.64;75.62;98810.31;4923758;28;103555;-68
2021/09/26 09:08:06;;;;;;;5.50;4.82;;;;;;;22.52;76.10;98813.44;4911691;28;102854;-68
2021/09/26 09:10:47;;;;;;;6.05;5.55;;;;;;;22.32;75.96;98814.97;4912835;28;104251;-68
2021/09/26 09:13:17;;;;;;;9.75;6.13;;;;;;;22.05;77.40;98830.88;4921664;28;103285;-68
2021/09/26 09:15:53;;;;;;;6.45;5.85;;;;;;;22.05;77.33;98834.41;4906200;28;103516;-68
2021/09/26 09:18:22;;;;;;;5.82;5.28;;;;;;;22.23;76.74;98834.09;4924355;28;102751;-69
2021/09/26 09:20:53;;;;;;;7.75;5.43;;;;;;;22.11;77.00;98832.84;4927145;28;104684;-69
2021/09/26 09:23:23;;;;;;;8.23;5.75;;;;;;;22.00;76.99;98838.63;4932131;28;103247;-69
2021/09/26 09:25:55;;;;;;;6.78;4.63;;;;;;;22.14;76.61;98835.16;4927723;28;103104;-69
2021/09/26 09:28:25;;;;;;;6.85;5.90;;;;;;;21.99;77.34;98832.41;4904096;28;103872;-68
2021/09/26 09:30:56;;;;;;;5.68;5.15;;;;;;;22.13;77.80;98834.31;4925516;28;103240;-69
2021/09/26 09:33:36;;;;;;;9.40;6.22;;;;;;;22.20;80.78;98845.22;4885645;28;103408;-66
2021/09/26 09:36:18;;;;;;;7.22;5.20;;;;;;;22.14;83.80;98846.78;4921527;28;103489;-67
2021/09/26 09:38:48;;;;;;;8.73;6.25;;;;;;;22.03;84.17;98849.03;4925729;28;102759;-67
2021/09/26 09:41:32;;;;;;;8.73;5.80;;;;;;;22.07;84.99;98850.34;4931340;28;104118;-67
2021/09/26 09:44:01;;;;;;;7.63;6.13;;;;;;;22.03;81.60;98846.34;4929466;28;103310;-67
2021/09/26 09:46:34;;;;;;;7.35;5.95;;;;;;;22.16;79.65;98842.03;4935022;28;102976;-67
2021/09/26 09:49:14;;;;;;;7.03;5.85;;;;;;;22.26;80.50;98850.69;4932551;28;104007;-67
2021/09/26 09:51:51;;;;;;;7.93;7.03;;;;;;;22.13;78.23;98834.31;4930784;28;103261;-66
2021/09/26 09:54:29;;;;;;;7.53;6.82;;;;;;;22.38;79.79;98840.31;4911499;28;103113;-67
2021/09/26 09:56:59;;;;;;;8.20;7.40;;;;;;;22.27;77.97;98841.59;4931658;28;102705;-68
2021/09/26 09:59:35;;;;;;;7.30;6.70;;;;;;;22.30;78.44;98843.94;4933164;28;103331;-67
2021/09/26 10:02:03;;;;;;;11.02;7.50;;;;;;;22.04;77.09;98850.69;4930152;28;103292;-67
2021/09/26 10:04:37;;;;;;;8.07;7.38;;;;;;;22.15;77.92;98845.72;4929449;28;103233;-67
2021/09/26 10:07:20;;;;;;;7.40;6.70;;;;;;;22.11;78.31;98844.44;4929490;28;102748;-67
2021/09/26 10:09:50;;;;;;;7.28;6.70;;;;;;;22.19;78.77;98832.75;4933345;28;103008;-67
2021/09/26 10:12:23;;;;;;;8.00;7.22;;;;;;;22.18;77.87;98826.53;4929290;28;104151;-67
2021/09/26 10:14:53;;;;;;;8.35;7.65;;;;;;;22.28;78.91;98820.91;4911693;28;103313;-67
2021/09/26 10:17:21;;;;;;;12.00;10.38;;;;;;;22.19;78.81;98833.59;4909020;28;104625;-67
2021/09/26 10:19:52;;;;;;;9.63;8.77;;;;;;;21.86;78.16;98837.53;4916136;28;102844;-67
2021/09/26 10:22:22;;;;;;;10.55;9.63;;;;;;;21.64;77.59;98836.47;4923885;28;103249;-66
2021/09/26 10:24:54;;;;;;;9.32;8.43;;;;;;;21.72;78.03;98831.06;4925244;28;103081;-66
2021/09/26 10:27:24;;;;;;;8.90;8.00;;;;;;;21.68;78.31;98824.38;4923775;28;102815;-66
2021/09/26 10:29:59;;;;;;;7.93;7.25;;;;;;;21.79;78.94;98815.03;4922643;28;103407;-66
2021/09/26 10:32:28;;;;;;;8.27;7.53;;;;;;;21.93;79.02;98827.75;4923820;28;103310;-67
2021/09/26 10:34:56;;;;;;;7.82;7.18;;;;;;;22.00;79.97;98827.88;4923385;28;103247;-68
2021/09/26 10:37:27;;;;;;;9.82;9.02;;;;;;;21.71;79.26;98836.63;4923399;28;102684;-68
2021/09/26 10:39:56;;;;;;;9.48;8.68;;;;;;;21.77;80.80;98843.97;4922556;28;103305;-67
2021/09/26 10:42:25;;;;;;;9.07;8.27;;;;;;;21.89;79.76;98827.25;4926472;28;103926;-67
2021/09/26 10:44:58;;;;;;;9.07;8.27;;;;;;;21.94;81.75;98829.44;4929426;28;103192;-67
2021/09/26 10:47:28;;;;;;;8.85;8.20;;;;;;;21.78;82.11;98832.22;4931221;28;103644;-67
2021/09/26 10:50:07;;;;;;;11.27;10.38;;;;;;;21.65;83.80;98830.09;4931829;28;102873;-66
2021/09/26 10:52:39;;;;;;;10.80;9.80;;;;;;;21.56;83.78;98841.09;4927773;28;103746;-66
2021/09/26 10:55:29;;;;;;;10.43;9.52;;;;;;;21.53;82.63;98836.06;4929671;28;103338;-67
2021/09/26 10:58:18;;;;;;;9.63;8.77;;;;;;;21.69;82.19;98826.06;4929243;28;102755;-67
2021/09/26 11:00:56;;;;;;;10.20;9.18;;;;;;;21.48;81.15;98833.06;4929149;28;103078;-68
2021/09/26 11:03:35;;;;;;;9.55;8.70;;;;;;;21.52;81.06;98820.94;4929224;28;103956;-68
2021/09/26 11:06:28;;;;;;;9.43;8.73;;;;;;;21.56;81.12;98824.97;4929228;28;103302;-69
2021/09/26 11:08:59;;;;;;;9.43;8.52;;;;;;;21.49;81.59;98832.06;4930296;28;103240;-68
2021/09/26 11:11:33;;;;;;;9.40;8.70;;;;;;;21.52;81.12;98829.00;4920214;28;103055;-69
2021/09/26 11:14:01;;;;;;;9.63;8.77;;;;;;;21.31;81.75;98832.31;4908808;28;104121;-70
2021/09/26 11:16:56;;;;;;;9.38;8.45;;;;;;;21.18;82.03;98816.75;4925601;28;103231;-69
2021/09/26 11:19:25;;;;;;;8.38;7.68;;;;;;;21.06;82.18;98812.75;4926077;28;102824;-69
2021/09/26 11:22:00;;;;;;;8.85;7.95;;;;;;;21.18;81.63;98805.16;4929759;28;102832;-68
2021/09/26 11:25:01;;;;;;;9.45;8.55;;;;;;;21.06;82.02;98802.00;4922561;28;104184;-70
2021/09/26 11:27:47;;;;;;;9.32;8.52;;;;;;;21.13;81.68;98797.66;4890453;28;103285;-68
2021/09/26 11:30:26;;;;;;;8.75;7.95;;;;;;;21.01;83.31;98796.31;4930401;28;102697;-69
2021/09/26 11:33:00;;;;;;;9.82;8.77;;;;;;;21.06;83.95;98785.88;4930262;28;103168;-68
2021/09/26 11:35:32;;;;;;;7.82;7.13;;;;;;;21.23;83.92;98776.75;4927959;28;103421;-70
2021/09/26 11:38:02;;;;;;;8.50;7.70;;;;;;;21.26;83.31;98776.41;4928348;28;103401;-68